sensor_id;sensor_type;location;lat;lon;timestamp;temperature;humidity
21580;DHT22;10951;59.656;9.666;2022-11-20T00:00:40;-2.40;94.00
21580;DHT22;10951;59.656;9.666;2022-11-20T00:03:06;-2.40;94.10
21580;DHT22;10951;59.656;9.666;2022-11-20T00:05:33;-2.50;94.10
21580;DHT22;10951;59.656;9.666;2022-11-20T00:08:00;-2.40;94.20
21580;DHT22;10951;59.656;9.666;2022-11-20T00:10:27;-2.40;94.20
21580;DHT22;10951;59.656;9.666;2022-11-20T00:12:54;-2.50;94.10
21580;DHT22;10951;59.656;9.666;2022-11-20T00:15:21;-2.50;94.20
21580;DHT22;10951;59.656;9.666;2022-11-20T00:17:48;-2.50;94.20
21580;DHT22;10951;59.656;9.666;2022-11-20T00:20:15;-2.50;94.30
21580;DHT22;10951;59.656;9.666;2022-11-20T00:22:42;-2.50;94.30
21580;DHT22;10951;59.656;9.666;2022-11-20T00:25:09;-2.40;94.40
21580;DHT22;10951;59.656;9.666;2022-11-20T00:27:37;-2.40;94.40
21580;DHT22;10951;59.656;9.666;2022-11-20T00:30:05;-2.40;94.30
21580;DHT22;10951;59.656;9.666;2022-11-20T00:32:38;-2.50;94.20
21580;DHT22;10951;59.656;9.666;2022-11-20T00:35:05;-2.50;94.30
21580;DHT22;10951;59.656;9.666;2022-11-20T00:37:32;-2.50;94.30
21580;DHT22;10951;59.656;9.666;2022-11-20T00:39:59;-2.50;94.30
21580;DHT22;10951;59.656;9.666;2022-11-20T00:42:25;-2.50;94.30
21580;DHT22;10951;59.656;9.666;2022-11-20T00:44:52;-2.50;94.40
21580;DHT22;10951;59.656;9.666;2022-11-20T00:47:19;-2.50;94.40
21580;DHT22;10951;59.656;9.666;2022-11-20T00:49:47;-2.50;94.50
21580;DHT22;10951;59.656;9.666;2022-11-20T00:52:13;-2.50;94.40
21580;DHT22;10951;59.656;9.666;2022-11-20T00:54:40;-2.50;94.40
21580;DHT22;10951;59.656;9.666;2022-11-20T00:57:07;-2.50;94.40
21580;DHT22;10951;59.656;9.666;2022-11-20T00:59:34;-2.40;94.50
21580;DHT22;10951;59.656;9.666;2022-11-20T01:02:01;-2.50;94.50
21580;DHT22;10951;59.656;9.666;2022-11-20T01:04:28;-2.40;94.50
21580;DHT22;10951;59.656;9.666;2022-11-20T01:06:55;-2.40;94.40
21580;DHT22;10951;59.656;9.666;2022-11-20T01:09:22;-2.40;94.50
21580;DHT22;10951;59.656;9.666;2022-11-20T01:11:49;-2.40;94.40
21580;DHT22;10951;59.656;9.666;2022-11-20T01:14:19;-2.40;94.40
21580;DHT22;10951;59.656;9.666;2022-11-20T01:16:49;-2.50;94.40
21580;DHT22;10951;59.656;9.666;2022-11-20T01:19:20;-2.50;94.50
21580;DHT22;10951;59.656;9.666;2022-11-20T01:21:51;-2.40;94.50
21580;DHT22;10951;59.656;9.666;2022-11-20T01:24:20;-2.40;94.40
21580;DHT22;10951;59.656;9.666;2022-11-20T01:26:49;-2.40;94.40
21580;DHT22;10951;59.656;9.666;2022-11-20T01:29:22;-2.40;94.40
21580;DHT22;10951;59.656;9.666;2022-11-20T01:31:50;-2.40;94.40
21580;DHT22;10951;59.656;9.666;2022-11-20T01:34:19;-2.40;94.80
21580;DHT22;10951;59.656;9.666;2022-11-20T01:36:46;-2.40;94.60
21580;DHT22;10951;59.656;9.666;2022-11-20T01:39:15;-2.40;94.70
21580;DHT22;10951;59.656;9.666;2022-11-20T01:41:43;-2.40;94.60
21580;DHT22;10951;59.656;9.666;2022-11-20T01:44:57;-2.40;94.50
21580;DHT22;10951;59.656;9.666;2022-11-20T01:47:41;-2.40;94.50
21580;DHT22;10951;59.656;9.666;2022-11-20T01:50:18;-2.40;94.50
21580;DHT22;10951;59.656;9.666;2022-11-20T01:52:59;-2.40;94.50
21580;DHT22;10951;59.656;9.666;2022-11-20T01:55:31;-2.40;94.50
21580;DHT22;10951;59.656;9.666;2022-11-20T01:58:00;-2.40;94.60
21580;DHT22;10951;59.656;9.666;2022-11-20T02:00:28;-2.40;94.60
21580;DHT22;10951;59.656;9.666;2022-11-20T02:03:01;-2.50;94.70
21580;DHT22;10951;59.656;9.666;2022-11-20T02:08:21;-2.40;94.80
21580;DHT22;10951;59.656;9.666;2022-11-20T02:10:50;-2.40;94.90
21580;DHT22;10951;59.656;9.666;2022-11-20T02:13:17;-2.40;94.70
21580;DHT22;10951;59.656;9.666;2022-11-20T02:16:03;-2.40;94.80
21580;DHT22;10951;59.656;9.666;2022-11-20T02:18:30;-2.40;94.90
21580;DHT22;10951;59.656;9.666;2022-11-20T02:21:13;-2.30;94.90
21580;DHT22;10951;59.656;9.666;2022-11-20T02:26:22;-2.30;95.00
21580;DHT22;10951;59.656;9.666;2022-11-20T02:28:49;-2.30;95.00
21580;DHT22;10951;59.656;9.666;2022-11-20T02:31:17;-2.30;95.10
21580;DHT22;10951;59.656;9.666;2022-11-20T02:33:43;-2.30;95.10
21580;DHT22;10951;59.656;9.666;2022-11-20T02:36:15;-2.20;95.10
21580;DHT22;10951;59.656;9.666;2022-11-20T02:38:43;-2.20;95.00
21580;DHT22;10951;59.656;9.666;2022-11-20T02:41:10;-2.20;95.00
21580;DHT22;10951;59.656;9.666;2022-11-20T02:43:37;-2.30;95.10
21580;DHT22;10951;59.656;9.666;2022-11-20T02:46:06;-2.20;95.10
21580;DHT22;10951;59.656;9.666;2022-11-20T02:48:33;-2.20;95.20
21580;DHT22;10951;59.656;9.666;2022-11-20T02:51:01;-2.20;95.10
21580;DHT22;10951;59.656;9.666;2022-11-20T02:53:28;-2.20;95.10
21580;DHT22;10951;59.656;9.666;2022-11-20T02:55:55;-2.30;95.20
21580;DHT22;10951;59.656;9.666;2022-11-20T02:58:22;-2.20;95.30
21580;DHT22;10951;59.656;9.666;2022-11-20T03:00:49;-2.20;95.10
21580;DHT22;10951;59.656;9.666;2022-11-20T03:03:17;-2.20;95.00
21580;DHT22;10951;59.656;9.666;2022-11-20T03:05:44;-2.10;95.10
21580;DHT22;10951;59.656;9.666;2022-11-20T03:08:10;-2.10;95.20
21580;DHT22;10951;59.656;9.666;2022-11-20T03:13:45;-2.10;95.10
21580;DHT22;10951;59.656;9.666;2022-11-20T03:16:18;-2.10;95.10
21580;DHT22;10951;59.656;9.666;2022-11-20T03:18:45;-2.10;95.10
21580;DHT22;10951;59.656;9.666;2022-11-20T03:21:13;-2.10;95.10
21580;DHT22;10951;59.656;9.666;2022-11-20T03:23:41;-2.10;95.20
21580;DHT22;10951;59.656;9.666;2022-11-20T03:26:12;-2.10;95.30
21580;DHT22;10951;59.656;9.666;2022-11-20T03:28:42;-2.10;95.40
21580;DHT22;10951;59.656;9.666;2022-11-20T03:31:14;-2.00;95.40
21580;DHT22;10951;59.656;9.666;2022-11-20T03:33:42;-2.00;95.30
21580;DHT22;10951;59.656;9.666;2022-11-20T03:36:11;-2.00;95.20
21580;DHT22;10951;59.656;9.666;2022-11-20T03:38:38;-2.00;95.20
21580;DHT22;10951;59.656;9.666;2022-11-20T03:41:09;-2.10;95.20
21580;DHT22;10951;59.656;9.666;2022-11-20T03:43:37;-2.10;95.50
21580;DHT22;10951;59.656;9.666;2022-11-20T03:46:05;-2.10;95.40
21580;DHT22;10951;59.656;9.666;2022-11-20T03:48:32;-2.10;95.20
21580;DHT22;10951;59.656;9.666;2022-11-20T03:51:20;-2.10;95.30
21580;DHT22;10951;59.656;9.666;2022-11-20T03:53:49;-2.10;95.40
21580;DHT22;10951;59.656;9.666;2022-11-20T03:56:18;-2.10;95.40
21580;DHT22;10951;59.656;9.666;2022-11-20T03:58:45;-2.10;95.40
21580;DHT22;10951;59.656;9.666;2022-11-20T04:01:16;-2.10;95.40
21580;DHT22;10951;59.656;9.666;2022-11-20T04:03:43;-2.20;95.50
21580;DHT22;10951;59.656;9.666;2022-11-20T04:06:11;-2.20;95.60
21580;DHT22;10951;59.656;9.666;2022-11-20T04:08:39;-2.20;95.50
21580;DHT22;10951;59.656;9.666;2022-11-20T04:11:16;-2.20;95.40
21580;DHT22;10951;59.656;9.666;2022-11-20T04:13:47;-2.10;95.60
21580;DHT22;10951;59.656;9.666;2022-11-20T04:16:15;-2.10;95.50
21580;DHT22;10951;59.656;9.666;2022-11-20T04:18:43;-2.10;95.50
21580;DHT22;10951;59.656;9.666;2022-11-20T04:21:10;-2.20;95.40
21580;DHT22;10951;59.656;9.666;2022-11-20T04:23:37;-2.20;95.40
21580;DHT22;10951;59.656;9.666;2022-11-20T04:26:06;-2.10;95.40
21580;DHT22;10951;59.656;9.666;2022-11-20T04:28:34;-2.20;95.30
21580;DHT22;10951;59.656;9.666;2022-11-20T04:31:07;-2.20;95.30
21580;DHT22;10951;59.656;9.666;2022-11-20T04:33:35;-2.20;95.40
21580;DHT22;10951;59.656;9.666;2022-11-20T04:36:07;-2.20;95.40
21580;DHT22;10951;59.656;9.666;2022-11-20T04:38:34;-2.20;95.50
21580;DHT22;10951;59.656;9.666;2022-11-20T04:41:03;-2.10;95.50
21580;DHT22;10951;59.656;9.666;2022-11-20T04:43:31;-2.20;95.40
21580;DHT22;10951;59.656;9.666;2022-11-20T04:45:59;-2.20;95.40
21580;DHT22;10951;59.656;9.666;2022-11-20T04:48:27;-2.10;95.50
21580;DHT22;10951;59.656;9.666;2022-11-20T04:50:55;-2.10;95.40
21580;DHT22;10951;59.656;9.666;2022-11-20T04:53:23;-2.20;95.30
21580;DHT22;10951;59.656;9.666;2022-11-20T04:55:50;-2.20;95.30
21580;DHT22;10951;59.656;9.666;2022-11-20T04:58:17;-2.20;95.40
21580;DHT22;10951;59.656;9.666;2022-11-20T05:00:43;-2.20;95.20
21580;DHT22;10951;59.656;9.666;2022-11-20T05:03:10;-2.10;95.30
21580;DHT22;10951;59.656;9.666;2022-11-20T05:05:37;-2.10;95.10
21580;DHT22;10951;59.656;9.666;2022-11-20T05:08:04;-2.20;95.30
21580;DHT22;10951;59.656;9.666;2022-11-20T05:10:31;-2.20;95.30
21580;DHT22;10951;59.656;9.666;2022-11-20T05:12:58;-2.20;95.20
21580;DHT22;10951;59.656;9.666;2022-11-20T05:15:25;-2.20;95.20
21580;DHT22;10951;59.656;9.666;2022-11-20T05:17:52;-2.10;95.40
21580;DHT22;10951;59.656;9.666;2022-11-20T05:20:20;-2.10;95.30
21580;DHT22;10951;59.656;9.666;2022-11-20T05:22:47;-2.10;95.30
21580;DHT22;10951;59.656;9.666;2022-11-20T05:25:14;-2.10;95.30
21580;DHT22;10951;59.656;9.666;2022-11-20T05:27:41;-2.10;95.40
21580;DHT22;10951;59.656;9.666;2022-11-20T05:30:08;-2.10;95.40
21580;DHT22;10951;59.656;9.666;2022-11-20T05:32:35;-2.10;95.30
21580;DHT22;10951;59.656;9.666;2022-11-20T05:35:02;-2.10;95.30
21580;DHT22;10951;59.656;9.666;2022-11-20T05:37:29;-2.00;95.50
21580;DHT22;10951;59.656;9.666;2022-11-20T05:39:56;-2.00;95.40
21580;DHT22;10951;59.656;9.666;2022-11-20T05:42:23;-2.00;95.30
21580;DHT22;10951;59.656;9.666;2022-11-20T05:45:01;-2.00;95.30
21580;DHT22;10951;59.656;9.666;2022-11-20T05:47:32;-2.00;95.20
21580;DHT22;10951;59.656;9.666;2022-11-20T05:49:59;-2.00;95.10
21580;DHT22;10951;59.656;9.666;2022-11-20T05:52:29;-2.00;95.20
21580;DHT22;10951;59.656;9.666;2022-11-20T05:54:56;-1.90;95.20
21580;DHT22;10951;59.656;9.666;2022-11-20T05:57:24;-2.00;95.10
21580;DHT22;10951;59.656;9.666;2022-11-20T05:59:51;-2.00;95.20
21580;DHT22;10951;59.656;9.666;2022-11-20T06:02:18;-2.00;95.20
21580;DHT22;10951;59.656;9.666;2022-11-20T06:04:45;-2.10;95.30
21580;DHT22;10951;59.656;9.666;2022-11-20T06:07:12;-2.10;95.50
21580;DHT22;10951;59.656;9.666;2022-11-20T06:09:39;-2.10;95.40
21580;DHT22;10951;59.656;9.666;2022-11-20T06:12:06;-2.00;95.50
21580;DHT22;10951;59.656;9.666;2022-11-20T06:14:33;-2.00;95.40
21580;DHT22;10951;59.656;9.666;2022-11-20T06:17:00;-2.00;95.50
21580;DHT22;10951;59.656;9.666;2022-11-20T06:19:27;-2.00;95.40
21580;DHT22;10951;59.656;9.666;2022-11-20T06:21:54;-2.00;95.40
21580;DHT22;10951;59.656;9.666;2022-11-20T06:24:21;-2.00;95.50
21580;DHT22;10951;59.656;9.666;2022-11-20T06:26:49;-2.00;95.50
21580;DHT22;10951;59.656;9.666;2022-11-20T06:29:16;-2.10;95.50
21580;DHT22;10951;59.656;9.666;2022-11-20T06:31:43;-2.00;95.50
21580;DHT22;10951;59.656;9.666;2022-11-20T06:34:10;-2.00;95.50
21580;DHT22;10951;59.656;9.666;2022-11-20T06:36:37;-2.10;95.70
21580;DHT22;10951;59.656;9.666;2022-11-20T06:39:04;-2.00;95.50
21580;DHT22;10951;59.656;9.666;2022-11-20T06:41:31;-2.00;95.50
21580;DHT22;10951;59.656;9.666;2022-11-20T06:43:57;-2.00;95.50
21580;DHT22;10951;59.656;9.666;2022-11-20T06:46:24;-2.00;95.50
21580;DHT22;10951;59.656;9.666;2022-11-20T06:48:52;-2.00;95.50
21580;DHT22;10951;59.656;9.666;2022-11-20T06:51:19;-2.00;95.70
21580;DHT22;10951;59.656;9.666;2022-11-20T06:53:45;-2.00;95.60
21580;DHT22;10951;59.656;9.666;2022-11-20T06:56:13;-2.00;95.80
21580;DHT22;10951;59.656;9.666;2022-11-20T06:58:40;-1.90;95.60
21580;DHT22;10951;59.656;9.666;2022-11-20T07:01:11;-1.90;95.50
21580;DHT22;10951;59.656;9.666;2022-11-20T07:03:39;-1.90;95.50
21580;DHT22;10951;59.656;9.666;2022-11-20T07:06:07;-1.90;95.70
21580;DHT22;10951;59.656;9.666;2022-11-20T07:08:34;-1.90;95.80
21580;DHT22;10951;59.656;9.666;2022-11-20T07:11:05;-1.90;95.60
21580;DHT22;10951;59.656;9.666;2022-11-20T07:13:32;-1.90;95.30
21580;DHT22;10951;59.656;9.666;2022-11-20T07:16:04;-1.90;95.30
21580;DHT22;10951;59.656;9.666;2022-11-20T07:18:32;-1.90;95.50
21580;DHT22;10951;59.656;9.666;2022-11-20T07:21:07;-1.90;95.50
21580;DHT22;10951;59.656;9.666;2022-11-20T07:23:35;-1.90;95.50
21580;DHT22;10951;59.656;9.666;2022-11-20T07:26:06;-1.90;95.50
21580;DHT22;10951;59.656;9.666;2022-11-20T07:28:33;-1.80;95.30
21580;DHT22;10951;59.656;9.666;2022-11-20T07:31:01;-1.80;95.20
21580;DHT22;10951;59.656;9.666;2022-11-20T07:33:28;-1.80;95.30
21580;DHT22;10951;59.656;9.666;2022-11-20T07:35:55;-1.80;95.50
21580;DHT22;10951;59.656;9.666;2022-11-20T07:38:22;-1.80;95.40
21580;DHT22;10951;59.656;9.666;2022-11-20T07:40:53;-1.90;95.20
21580;DHT22;10951;59.656;9.666;2022-11-20T07:43:21;-1.90;95.50
21580;DHT22;10951;59.656;9.666;2022-11-20T07:45:48;-1.80;95.50
21580;DHT22;10951;59.656;9.666;2022-11-20T07:48:15;-1.90;95.30
21580;DHT22;10951;59.656;9.666;2022-11-20T07:50:42;-1.80;95.30
21580;DHT22;10951;59.656;9.666;2022-11-20T07:53:08;-1.80;95.40
21580;DHT22;10951;59.656;9.666;2022-11-20T07:55:35;-1.80;95.40
21580;DHT22;10951;59.656;9.666;2022-11-20T07:58:02;-1.80;95.50
21580;DHT22;10951;59.656;9.666;2022-11-20T08:00:29;-1.80;95.30
21580;DHT22;10951;59.656;9.666;2022-11-20T08:02:56;-1.80;95.20
21580;DHT22;10951;59.656;9.666;2022-11-20T08:05:23;-1.80;95.30
21580;DHT22;10951;59.656;9.666;2022-11-20T08:07:51;-1.80;95.40
21580;DHT22;10951;59.656;9.666;2022-11-20T08:10:18;-1.80;95.30
21580;DHT22;10951;59.656;9.666;2022-11-20T08:12:49;-1.70;95.30
21580;DHT22;10951;59.656;9.666;2022-11-20T08:15:37;-1.80;95.20
21580;DHT22;10951;59.656;9.666;2022-11-20T08:18:09;-1.70;95.10
21580;DHT22;10951;59.656;9.666;2022-11-20T08:21:02;-1.70;95.20
21580;DHT22;10951;59.656;9.666;2022-11-20T08:23:29;-1.70;95.40
21580;DHT22;10951;59.656;9.666;2022-11-20T08:25:56;-1.70;95.40
21580;DHT22;10951;59.656;9.666;2022-11-20T08:28:22;-1.70;95.20
21580;DHT22;10951;59.656;9.666;2022-11-20T08:30:50;-1.70;95.20
21580;DHT22;10951;59.656;9.666;2022-11-20T08:33:17;-1.70;95.20
21580;DHT22;10951;59.656;9.666;2022-11-20T08:35:45;-1.60;95.20
21580;DHT22;10951;59.656;9.666;2022-11-20T08:38:12;-1.60;95.10
21580;DHT22;10951;59.656;9.666;2022-11-20T08:40:39;-1.60;95.20
21580;DHT22;10951;59.656;9.666;2022-11-20T08:43:06;-1.60;95.10
21580;DHT22;10951;59.656;9.666;2022-11-20T08:45:33;-1.60;95.00
21580;DHT22;10951;59.656;9.666;2022-11-20T08:48:01;-1.60;95.10
21580;DHT22;10951;59.656;9.666;2022-11-20T08:50:28;-1.60;95.40
21580;DHT22;10951;59.656;9.666;2022-11-20T08:53:04;-1.50;95.30
21580;DHT22;10951;59.656;9.666;2022-11-20T08:55:31;-1.60;95.20
21580;DHT22;10951;59.656;9.666;2022-11-20T08:58:03;-1.50;95.30
21580;DHT22;10951;59.656;9.666;2022-11-20T09:00:31;-1.50;95.10
21580;DHT22;10951;59.656;9.666;2022-11-20T09:02:59;-1.50;95.00
21580;DHT22;10951;59.656;9.666;2022-11-20T09:05:28;-1.50;94.90
21580;DHT22;10951;59.656;9.666;2022-11-20T09:07:58;-1.50;94.90
21580;DHT22;10951;59.656;9.666;2022-11-20T09:10:26;-1.50;94.90
21580;DHT22;10951;59.656;9.666;2022-11-20T09:12:54;-1.50;94.90
21580;DHT22;10951;59.656;9.666;2022-11-20T09:15:22;-1.50;94.90
21580;DHT22;10951;59.656;9.666;2022-11-20T09:17:57;-1.50;94.90
21580;DHT22;10951;59.656;9.666;2022-11-20T09:20:26;-1.50;94.80
21580;DHT22;10951;59.656;9.666;2022-11-20T09:22:53;-1.60;94.90
21580;DHT22;10951;59.656;9.666;2022-11-20T09:25:20;-1.50;94.90
21580;DHT22;10951;59.656;9.666;2022-11-20T09:27:55;-1.50;94.90
21580;DHT22;10951;59.656;9.666;2022-11-20T09:30:22;-1.50;94.90
21580;DHT22;10951;59.656;9.666;2022-11-20T09:32:49;-1.50;94.80
21580;DHT22;10951;59.656;9.666;2022-11-20T09:35:16;-1.50;94.90
21580;DHT22;10951;59.656;9.666;2022-11-20T09:37:45;-1.50;95.00
21580;DHT22;10951;59.656;9.666;2022-11-20T09:40:26;-1.50;95.00
21580;DHT22;10951;59.656;9.666;2022-11-20T09:56:34;-1.50;94.80
21580;DHT22;10951;59.656;9.666;2022-11-20T09:59:06;-1.60;94.90
21580;DHT22;10951;59.656;9.666;2022-11-20T10:01:36;-1.60;95.00
21580;DHT22;10951;59.656;9.666;2022-11-20T10:04:13;-1.60;95.10
21580;DHT22;10951;59.656;9.666;2022-11-20T10:06:46;-1.50;95.10
21580;DHT22;10951;59.656;9.666;2022-11-20T10:09:36;-1.50;94.90
21580;DHT22;10951;59.656;9.666;2022-11-20T10:17:57;-1.50;94.80
21580;DHT22;10951;59.656;9.666;2022-11-20T10:26:01;-1.40;94.60
21580;DHT22;10951;59.656;9.666;2022-11-20T10:31:17;-1.30;94.70
21580;DHT22;10951;59.656;9.666;2022-11-20T10:33:52;-1.20;94.60
21580;DHT22;10951;59.656;9.666;2022-11-20T10:36:54;-1.30;94.50
21580;DHT22;10951;59.656;9.666;2022-11-20T10:39:35;-1.20;94.50
21580;DHT22;10951;59.656;9.666;2022-11-20T10:42:11;-1.20;94.40
21580;DHT22;10951;59.656;9.666;2022-11-20T10:44:46;-1.20;94.60
21580;DHT22;10951;59.656;9.666;2022-11-20T10:47:32;-1.20;94.40
21580;DHT22;10951;59.656;9.666;2022-11-20T10:50:05;-1.10;94.40
21580;DHT22;10951;59.656;9.666;2022-11-20T10:55:53;-1.10;94.30
21580;DHT22;10951;59.656;9.666;2022-11-20T10:58:36;-1.10;94.10
21580;DHT22;10951;59.656;9.666;2022-11-20T11:01:05;-1.20;93.90
21580;DHT22;10951;59.656;9.666;2022-11-20T11:03:38;-1.20;94.00
21580;DHT22;10951;59.656;9.666;2022-11-20T11:06:39;-1.20;94.20
21580;DHT22;10951;59.656;9.666;2022-11-20T11:09:17;-1.10;94.30
21580;DHT22;10951;59.656;9.666;2022-11-20T11:11:47;-1.10;94.30
21580;DHT22;10951;59.656;9.666;2022-11-20T11:14:15;-1.00;94.40
21580;DHT22;10951;59.656;9.666;2022-11-20T11:16:56;-1.00;94.10
21580;DHT22;10951;59.656;9.666;2022-11-20T11:19:23;-0.90;93.90
21580;DHT22;10951;59.656;9.666;2022-11-20T11:21:56;-0.90;93.80
21580;DHT22;10951;59.656;9.666;2022-11-20T11:27:14;-0.90;93.90
21580;DHT22;10951;59.656;9.666;2022-11-20T11:29:45;-0.80;93.70
21580;DHT22;10951;59.656;9.666;2022-11-20T11:32:17;-0.90;93.90
21580;DHT22;10951;59.656;9.666;2022-11-20T11:34:45;-0.90;93.70
21580;DHT22;10951;59.656;9.666;2022-11-20T11:37:18;-0.90;93.80
21580;DHT22;10951;59.656;9.666;2022-11-20T11:39:46;-0.90;94.10
21580;DHT22;10951;59.656;9.666;2022-11-20T11:42:30;-0.90;93.70
21580;DHT22;10951;59.656;9.666;2022-11-20T11:44:59;-1.00;93.80
21580;DHT22;10951;59.656;9.666;2022-11-20T11:47:45;-1.00;93.80
21580;DHT22;10951;59.656;9.666;2022-11-20T11:50:24;-1.10;93.80
21580;DHT22;10951;59.656;9.666;2022-11-20T11:53:14;-1.00;94.20
21580;DHT22;10951;59.656;9.666;2022-11-20T11:55:54;-1.00;93.90
21580;DHT22;10951;59.656;9.666;2022-11-20T12:03:42;-1.10;93.80
21580;DHT22;10951;59.656;9.666;2022-11-20T12:06:16;-1.10;93.80
21580;DHT22;10951;59.656;9.666;2022-11-20T12:08:55;-1.10;93.80
21580;DHT22;10951;59.656;9.666;2022-11-20T12:11:33;-1.20;93.90
21580;DHT22;10951;59.656;9.666;2022-11-20T12:14:14;-1.10;94.10
21580;DHT22;10951;59.656;9.666;2022-11-20T12:16:43;-1.10;94.00
21580;DHT22;10951;59.656;9.666;2022-11-20T12:19:12;-1.10;94.10
21580;DHT22;10951;59.656;9.666;2022-11-20T12:30:16;-1.00;94.00
21580;DHT22;10951;59.656;9.666;2022-11-20T12:47:16;-0.90;93.90
21580;DHT22;10951;59.656;9.666;2022-11-20T12:52:44;-1.00;93.90
21580;DHT22;10951;59.656;9.666;2022-11-20T12:55:28;-1.10;94.00
21580;DHT22;10951;59.656;9.666;2022-11-20T13:06:18;-1.10;94.30
21580;DHT22;10951;59.656;9.666;2022-11-20T13:08:53;-1.10;94.20
21580;DHT22;10951;59.656;9.666;2022-11-20T13:19:19;-1.20;94.40
21580;DHT22;10951;59.656;9.666;2022-11-20T13:21:48;-1.20;94.30
21580;DHT22;10951;59.656;9.666;2022-11-20T13:29:36;-1.20;94.30
21580;DHT22;10951;59.656;9.666;2022-11-20T13:34:34;-1.10;94.50
21580;DHT22;10951;59.656;9.666;2022-11-20T13:37:02;-1.10;94.50
21580;DHT22;10951;59.656;9.666;2022-11-20T13:39:36;-1.00;94.50
21580;DHT22;10951;59.656;9.666;2022-11-20T13:42:23;-1.00;94.20
21580;DHT22;10951;59.656;9.666;2022-11-20T13:45:02;-1.00;94.20
21580;DHT22;10951;59.656;9.666;2022-11-20T13:47:35;-1.00;94.20
21580;DHT22;10951;59.656;9.666;2022-11-20T13:50:04;-1.00;94.00
21580;DHT22;10951;59.656;9.666;2022-11-20T13:52:48;-1.00;94.10
21580;DHT22;10951;59.656;9.666;2022-11-20T13:55:38;-1.00;94.20
21580;DHT22;10951;59.656;9.666;2022-11-20T14:01:20;-1.00;94.00
21580;DHT22;10951;59.656;9.666;2022-11-20T14:03:48;-1.00;94.10
21580;DHT22;10951;59.656;9.666;2022-11-20T14:06:39;-1.00;94.00
21580;DHT22;10951;59.656;9.666;2022-11-20T14:09:32;-0.90;94.00
21580;DHT22;10951;59.656;9.666;2022-11-20T14:11:58;-0.90;93.90
21580;DHT22;10951;59.656;9.666;2022-11-20T14:14:30;-0.90;93.80
21580;DHT22;10951;59.656;9.666;2022-11-20T14:17:21;-0.90;93.60
21580;DHT22;10951;59.656;9.666;2022-11-20T14:19:50;-0.90;93.80
21580;DHT22;10951;59.656;9.666;2022-11-20T14:22:26;-0.90;93.70
21580;DHT22;10951;59.656;9.666;2022-11-20T14:27:41;-0.90;93.70
21580;DHT22;10951;59.656;9.666;2022-11-20T14:30:17;-0.90;93.80
21580;DHT22;10951;59.656;9.666;2022-11-20T14:32:45;-0.90;93.70
21580;DHT22;10951;59.656;9.666;2022-11-20T14:35:20;-0.90;93.80
21580;DHT22;10951;59.656;9.666;2022-11-20T14:37:48;-0.90;93.70
21580;DHT22;10951;59.656;9.666;2022-11-20T14:42:56;-0.90;93.90
21580;DHT22;10951;59.656;9.666;2022-11-20T14:45:25;-0.90;93.80
21580;DHT22;10951;59.656;9.666;2022-11-20T14:47:56;-0.90;93.70
21580;DHT22;10951;59.656;9.666;2022-11-20T14:50:26;-0.90;93.80
21580;DHT22;10951;59.656;9.666;2022-11-20T14:52:58;-0.90;93.80
21580;DHT22;10951;59.656;9.666;2022-11-20T14:55:33;-0.90;93.80
21580;DHT22;10951;59.656;9.666;2022-11-20T14:58:21;-0.90;93.90
21580;DHT22;10951;59.656;9.666;2022-11-20T15:01:04;-0.90;93.70
21580;DHT22;10951;59.656;9.666;2022-11-20T15:03:34;-0.90;93.80
21580;DHT22;10951;59.656;9.666;2022-11-20T15:06:02;-0.90;93.80
21580;DHT22;10951;59.656;9.666;2022-11-20T15:08:29;-0.90;93.90
21580;DHT22;10951;59.656;9.666;2022-11-20T15:10:56;-0.90;94.00
21580;DHT22;10951;59.656;9.666;2022-11-20T15:13:30;-0.90;93.80
21580;DHT22;10951;59.656;9.666;2022-11-20T15:16:00;-0.90;93.80
21580;DHT22;10951;59.656;9.666;2022-11-20T15:18:33;-0.90;93.70
21580;DHT22;10951;59.656;9.666;2022-11-20T15:21:10;-0.90;93.90
21580;DHT22;10951;59.656;9.666;2022-11-20T15:23:37;-0.90;93.60
21580;DHT22;10951;59.656;9.666;2022-11-20T15:26:05;-0.90;93.30
21580;DHT22;10951;59.656;9.666;2022-11-20T15:31:03;-1.00;93.50
21580;DHT22;10951;59.656;9.666;2022-11-20T15:33:32;-0.90;93.40
21580;DHT22;10951;59.656;9.666;2022-11-20T15:35:59;-0.90;93.40
21580;DHT22;10951;59.656;9.666;2022-11-20T15:38:26;-1.00;93.50
21580;DHT22;10951;59.656;9.666;2022-11-20T15:40:53;-1.00;93.70
21580;DHT22;10951;59.656;9.666;2022-11-20T15:43:20;-1.00;93.60
21580;DHT22;10951;59.656;9.666;2022-11-20T15:45:58;-0.90;93.50
21580;DHT22;10951;59.656;9.666;2022-11-20T15:48:26;-0.90;93.50
21580;DHT22;10951;59.656;9.666;2022-11-20T15:50:58;-0.90;93.60
21580;DHT22;10951;59.656;9.666;2022-11-20T15:53:25;-0.90;93.60
21580;DHT22;10951;59.656;9.666;2022-11-20T15:55:52;-0.90;93.50
21580;DHT22;10951;59.656;9.666;2022-11-20T15:58:19;-0.90;93.60
21580;DHT22;10951;59.656;9.666;2022-11-20T16:00:46;-0.90;93.60
21580;DHT22;10951;59.656;9.666;2022-11-20T16:03:14;-0.90;93.80
21580;DHT22;10951;59.656;9.666;2022-11-20T16:05:42;-0.90;93.70
21580;DHT22;10951;59.656;9.666;2022-11-20T16:08:09;-0.90;93.80
21580;DHT22;10951;59.656;9.666;2022-11-20T16:10:38;-0.90;94.00
21580;DHT22;10951;59.656;9.666;2022-11-20T16:13:12;-0.90;93.80
21580;DHT22;10951;59.656;9.666;2022-11-20T16:15:59;-0.90;93.80
21580;DHT22;10951;59.656;9.666;2022-11-20T16:18:27;-0.90;94.00
21580;DHT22;10951;59.656;9.666;2022-11-20T16:20:54;-0.90;94.00
21580;DHT22;10951;59.656;9.666;2022-11-20T16:23:22;-0.90;94.00
21580;DHT22;10951;59.656;9.666;2022-11-20T16:25:49;-0.90;94.00
21580;DHT22;10951;59.656;9.666;2022-11-20T16:28:17;-0.90;94.00
21580;DHT22;10951;59.656;9.666;2022-11-20T16:30:45;-0.90;94.10
21580;DHT22;10951;59.656;9.666;2022-11-20T16:33:14;-0.90;94.00
21580;DHT22;10951;59.656;9.666;2022-11-20T16:35:41;-0.90;93.90
21580;DHT22;10951;59.656;9.666;2022-11-20T16:38:09;-0.90;94.00
21580;DHT22;10951;59.656;9.666;2022-11-20T16:40:36;-0.90;94.10
21580;DHT22;10951;59.656;9.666;2022-11-20T16:43:10;-0.90;94.00
21580;DHT22;10951;59.656;9.666;2022-11-20T16:45:41;-0.90;94.00
21580;DHT22;10951;59.656;9.666;2022-11-20T16:48:14;-0.90;94.00
21580;DHT22;10951;59.656;9.666;2022-11-20T16:50:52;-0.90;94.20
21580;DHT22;10951;59.656;9.666;2022-11-20T16:53:20;-0.90;94.10
21580;DHT22;10951;59.656;9.666;2022-11-20T16:55:48;-0.90;94.10
21580;DHT22;10951;59.656;9.666;2022-11-20T16:58:15;-0.90;94.40
21580;DHT22;10951;59.656;9.666;2022-11-20T17:00:42;-0.90;94.20
21580;DHT22;10951;59.656;9.666;2022-11-20T17:03:17;-0.90;94.60
21580;DHT22;10951;59.656;9.666;2022-11-20T17:05:44;-0.90;94.40
21580;DHT22;10951;59.656;9.666;2022-11-20T17:08:11;-0.90;94.40
21580;DHT22;10951;59.656;9.666;2022-11-20T17:10:38;-0.90;94.40
21580;DHT22;10951;59.656;9.666;2022-11-20T17:13:05;-0.90;94.40
21580;DHT22;10951;59.656;9.666;2022-11-20T17:15:32;-0.90;94.50
21580;DHT22;10951;59.656;9.666;2022-11-20T17:17:58;-0.90;94.50
21580;DHT22;10951;59.656;9.666;2022-11-20T17:20:25;-0.90;94.40
21580;DHT22;10951;59.656;9.666;2022-11-20T17:22:53;-0.90;94.40
21580;DHT22;10951;59.656;9.666;2022-11-20T17:25:19;-0.90;94.30
21580;DHT22;10951;59.656;9.666;2022-11-20T17:27:46;-0.90;94.10
21580;DHT22;10951;59.656;9.666;2022-11-20T17:30:13;-0.90;94.50
21580;DHT22;10951;59.656;9.666;2022-11-20T17:32:41;-0.90;94.30
21580;DHT22;10951;59.656;9.666;2022-11-20T17:35:12;-0.90;93.90
21580;DHT22;10951;59.656;9.666;2022-11-20T17:37:39;-0.90;93.80